Time;durP1;ratioP1;P1;durP2;ratioP2;P2;SDS_P1;SDS_P2;PMS_P1;PMS_P2;Temp;Humidity;BMP_temperature;BMP_pressure;BME280_temperature;BME280_humidity;BME280_pressure;Samples;Min_cycle;Max_cycle;Signal;HPM_P1;HPM_P2
2023/09/06 00:02:25;;;;;;;233.43;97.33;;;;;;;;;;5075105;28;20472;-47
2023/09/06 00:04:51;;;;;;;231.63;97.13;;;;;;;;;;5074083;28;20432;-46
2023/09/06 00:07:17;;;;;;;233.70;99.17;;;;;;;;;;5075107;28;20499;-45
2023/09/06 00:12:22;;;;;;;234.47;97.53;;;;;;;;;;5757614;23;20518;-47
2023/09/06 00:14:48;;;;;;;231.33;95.13;;;;;;;;;;4999809;28;20470;-46
2023/09/06 00:17:14;;;;;;;229.97;93.57;;;;;;;;;;5005018;28;20426;-46
2023/09/06 00:19:39;;;;;;;229.97;94.07;;;;;;;;;;5000740;28;20408;-46
2023/09/06 00:22:05;;;;;;;231.70;93.03;;;;;;;;;;5010951;28;20431;-47
2023/09/06 00:24:31;;;;;;;230.33;92.03;;;;;;;;;;4998488;28;20408;-46
2023/09/06 00:27:01;;;;;;;231.13;94.33;;;;;;;;;;5002967;28;20404;-46
2023/09/06 00:29:27;;;;;;;230.83;92.97;;;;;;;;;;5005434;28;20759;-47
2023/09/06 00:31:53;;;;;;;234.57;96.43;;;;;;;;;;5005345;28;20423;-46
2023/09/06 00:34:19;;;;;;;234.97;99.17;;;;;;;;;;4990661;28;20412;-46
2023/09/06 00:36:45;;;;;;;235.73;100.50;;;;;;;;;;5007816;28;20412;-47
2023/09/06 00:39:11;;;;;;;231.80;95.73;;;;;;;;;;5008251;28;20451;-47
2023/09/06 00:41:41;;;;;;;239.00;98.37;;;;;;;;;;5002346;28;20470;-47
2023/09/06 00:44:10;;;;;;;230.37;94.27;;;;;;;;;;4999917;28;20464;-46
2023/09/06 00:46:36;;;;;;;231.03;92.50;;;;;;;;;;5001788;28;20411;-46
2023/09/06 00:49:02;;;;;;;233.00;96.77;;;;;;;;;;5002737;28;20410;-46
2023/09/06 00:51:29;;;;;;;234.23;94.50;;;;;;;;;;5005622;28;20418;-47
2023/09/06 00:54:00;;;;;;;230.47;93.73;;;;;;;;;;5004342;28;20404;-47
2023/09/06 00:56:26;;;;;;;232.40;95.40;;;;;;;;;;5006230;28;20408;-46
2023/09/06 00:58:52;;;;;;;229.90;91.03;;;;;;;;;;5003116;28;20414;-47
2023/09/06 01:01:19;;;;;;;235.33;98.47;;;;;;;;;;4997849;28;21014;-46
2023/09/06 01:03:45;;;;;;;232.97;95.97;;;;;;;;;;4998570;28;20823;-47
2023/09/06 01:06:28;;;;;;;227.37;91.37;;;;;;;;;;5002811;28;20922;-46
2023/09/06 01:08:58;;;;;;;233.50;97.53;;;;;;;;;;4998225;28;20412;-46
2023/09/06 01:11:27;;;;;;;230.97;93.73;;;;;;;;;;5004239;28;20819;-46
2023/09/06 01:13:55;;;;;;;230.30;95.73;;;;;;;;;;5001852;28;20428;-46
2023/09/06 01:16:32;;;;;;;231.47;96.23;;;;;;;;;;5002762;28;20431;-46
2023/09/06 01:18:58;;;;;;;230.13;93.87;;;;;;;;;;5000167;28;20410;-46
2023/09/06 01:21:26;;;;;;;232.47;96.60;;;;;;;;;;5002752;28;20422;-47
2023/09/06 01:23:52;;;;;;;231.43;96.43;;;;;;;;;;5003879;28;21036;-46
2023/09/06 01:26:18;;;;;;;232.37;99.37;;;;;;;;;;4999752;28;20420;-47
2023/09/06 01:28:44;;;;;;;228.33;92.47;;;;;;;;;;4983644;28;20431;-47
2023/09/06 01:31:10;;;;;;;226.43;92.80;;;;;;;;;;5002828;28;20408;-47
2023/09/06 01:33:37;;;;;;;231.87;96.57;;;;;;;;;;5004896;28;20806;-46
2023/09/06 01:36:03;;;;;;;230.87;95.60;;;;;;;;;;5002961;28;20408;-47
2023/09/06 01:38:32;;;;;;;230.73;94.97;;;;;;;;;;5005601;28;20927;-46
2023/09/06 01:40:58;;;;;;;232.30;98.47;;;;;;;;;;5003023;28;20403;-46
2023/09/06 01:43:24;;;;;;;232.27;96.10;;;;;;;;;;4995903;28;20475;-46
2023/09/06 01:45:51;;;;;;;231.30;96.77;;;;;;;;;;5005116;28;20414;-47
2023/09/06 01:48:20;;;;;;;232.03;99.07;;;;;;;;;;5002339;28;20423;-46
2023/09/06 01:50:46;;;;;;;233.93;101.00;;;;;;;;;;5003700;28;20404;-46
2023/09/06 01:53:13;;;;;;;231.33;98.13;;;;;;;;;;5002294;28;20742;-48
2023/09/06 01:55:40;;;;;;;230.20;95.10;;;;;;;;;;5002644;28;20447;-47
2023/09/06 01:58:06;;;;;;;231.67;96.17;;;;;;;;;;5000089;28;20411;-46
2023/09/06 02:00:34;;;;;;;233.87;97.97;;;;;;;;;;4996165;28;20556;-46
2023/09/06 02:03:00;;;;;;;234.07;97.73;;;;;;;;;;5004279;28;20833;-46
2023/09/06 02:05:26;;;;;;;230.67;94.17;;;;;;;;;;5000735;28;20461;-47
2023/09/06 02:07:52;;;;;;;234.13;99.57;;;;;;;;;;4992614;28;20424;-46
2023/09/06 02:10:18;;;;;;;233.07;100.03;;;;;;;;;;5002131;28;20408;-46
2023/09/06 02:12:45;;;;;;;231.23;93.73;;;;;;;;;;5000058;28;20519;-48
2023/09/06 02:15:14;;;;;;;229.33;92.10;;;;;;;;;;5000135;28;20429;-47
2023/09/06 02:17:44;;;;;;;233.27;98.93;;;;;;;;;;5001156;28;20424;-46
2023/09/06 02:20:17;;;;;;;229.20;92.80;;;;;;;;;;5004959;28;20474;-47
2023/09/06 02:22:43;;;;;;;233.50;97.70;;;;;;;;;;5000003;28;20634;-47
2023/09/06 02:25:09;;;;;;;232.93;97.40;;;;;;;;;;4996900;28;20416;-47
2023/09/06 02:27:35;;;;;;;232.23;95.17;;;;;;;;;;5004314;28;20446;-47
2023/09/06 02:30:04;;;;;;;233.07;94.23;;;;;;;;;;5002233;28;20411;-46
2023/09/06 02:32:31;;;;;;;231.80;96.03;;;;;;;;;;4992983;28;20439;-47
2023/09/06 02:34:58;;;;;;;231.73;96.07;;;;;;;;;;4996002;28;20777;-47
2023/09/06 02:37:24;;;;;;;232.40;94.97;;;;;;;;;;5002163;28;20422;-47
2023/09/06 02:39:53;;;;;;;229.07;91.13;;;;;;;;;;4999645;28;20403;-46
2023/09/06 02:42:19;;;;;;;229.97;92.13;;;;;;;;;;5002042;28;20442;-47
2023/09/06 02:44:45;;;;;;;228.37;90.20;;;;;;;;;;5003596;28;20506;-46
2023/09/06 02:47:11;;;;;;;230.30;90.20;;;;;;;;;;5000204;28;20490;-46
2023/09/06 02:49:42;;;;;;;234.20;96.73;;;;;;;;;;5002150;28;20849;-46
2023/09/06 02:52:20;;;;;;;232.23;92.77;;;;;;;;;;5000883;28;20450;-47
2023/09/06 02:54:46;;;;;;;232.90;94.57;;;;;;;;;;4994712;28;20406;-48
2023/09/06 02:57:14;;;;;;;233.70;92.63;;;;;;;;;;5001332;28;20883;-47
2023/09/06 02:59:40;;;;;;;233.33;96.10;;;;;;;;;;5005160;28;20415;-48
2023/09/06 03:02:06;;;;;;;229.03;93.03;;;;;;;;;;5004542;28;20522;-48
2023/09/06 03:04:37;;;;;;;229.13;91.50;;;;;;;;;;4998485;28;20515;-47
2023/09/06 03:07:07;;;;;;;227.27;88.77;;;;;;;;;;4995979;28;20416;-47
2023/09/06 03:09:35;;;;;;;228.77;89.97;;;;;;;;;;5004346;28;20927;-47
2023/09/06 03:12:07;;;;;;;229.37;89.17;;;;;;;;;;5005973;28;20438;-48
2023/09/06 03:14:36;;;;;;;227.87;85.50;;;;;;;;;;4996980;28;20424;-47
2023/09/06 03:17:08;;;;;;;229.57;91.03;;;;;;;;;;5000852;28;20498;-47
2023/09/06 03:19:40;;;;;;;229.23;87.67;;;;;;;;;;5002442;28;20415;-48
2023/09/06 03:22:06;;;;;;;230.33;89.53;;;;;;;;;;5005525;28;20459;-47
2023/09/06 03:24:33;;;;;;;227.47;86.50;;;;;;;;;;4999283;28;20453;-47
2023/09/06 03:26:59;;;;;;;229.87;88.27;;;;;;;;;;4998336;28;20453;-48
2023/09/06 03:29:27;;;;;;;229.53;88.97;;;;;;;;;;5004984;28;20411;-46
2023/09/06 03:31:53;;;;;;;229.07;88.10;;;;;;;;;;4995899;28;20426;-46
2023/09/06 03:34:21;;;;;;;229.60;89.43;;;;;;;;;;4995987;28;20418;-47
2023/09/06 03:36:51;;;;;;;225.17;82.93;;;;;;;;;;4995711;28;20407;-47
2023/09/06 03:39:19;;;;;;;223.63;82.97;;;;;;;;;;4996048;28;20414;-47
2023/09/06 03:41:46;;;;;;;231.47;90.27;;;;;;;;;;4995785;28;20553;-46
2023/09/06 03:44:12;;;;;;;229.97;88.20;;;;;;;;;;4995825;28;20457;-47
2023/09/06 03:46:39;;;;;;;229.57;88.30;;;;;;;;;;4996002;28;20410;-47
2023/09/06 03:49:10;;;;;;;227.47;85.47;;;;;;;;;;4995853;28;20407;-47
2023/09/06 03:51:36;;;;;;;233.27;88.97;;;;;;;;;;4995592;28;20405;-47
2023/09/06 03:54:06;;;;;;;229.73;89.37;;;;;;;;;;4995636;28;20409;-47
2023/09/06 03:56:32;;;;;;;226.37;86.00;;;;;;;;;;4995783;28;20479;-47
2023/09/06 03:59:00;;;;;;;227.40;87.80;;;;;;;;;;4995766;28;20445;-46
2023/09/06 04:01:27;;;;;;;226.17;83.47;;;;;;;;;;4995397;28;20407;-47
2023/09/06 04:03:53;;;;;;;231.00;89.17;;;;;;;;;;4995334;28;20472;-47
2023/09/06 04:06:19;;;;;;;229.10;86.43;;;;;;;;;;4995757;28;20419;-48
2023/09/06 04:08:45;;;;;;;227.57;86.13;;;;;;;;;;4978677;28;20407;-46
2023/09/06 04:11:11;;;;;;;227.73;85.83;;;;;;;;;;4976021;28;20411;-47
2023/09/06 04:13:39;;;;;;;229.07;86.73;;;;;;;;;;4975657;28;20436;-47
2023/09/06 04:16:05;;;;;;;227.80;87.80;;;;;;;;;;4975837;28;20474;-48
2023/09/06 04:18:31;;;;;;;228.83;87.77;;;;;;;;;;4975898;28;20412;-47
2023/09/06 04:20:59;;;;;;;228.90;87.30;;;;;;;;;;4974721;28;20408;-47
2023/09/06 04:23:25;;;;;;;229.37;86.87;;;;;;;;;;4975416;28;20476;-46
2023/09/06 04:25:52;;;;;;;228.67;86.93;;;;;;;;;;4975771;28;20396;-46
2023/09/06 04:28:21;;;;;;;228.90;89.10;;;;;;;;;;4997426;28;20434;-47
2023/09/06 04:30:47;;;;;;;230.90;90.83;;;;;;;;;;4996170;28;20900;-47
2023/09/06 04:33:14;;;;;;;229.70;88.73;;;;;;;;;;4990896;28;20436;-47
2023/09/06 04:35:44;;;;;;;229.00;86.63;;;;;;;;;;5005274;28;20505;-47
2023/09/06 04:38:11;;;;;;;229.53;88.60;;;;;;;;;;4997318;28;20425;-47
2023/09/06 04:40:38;;;;;;;230.50;89.60;;;;;;;;;;5004563;28;20750;-47
2023/09/06 04:43:04;;;;;;;229.30;90.30;;;;;;;;;;5002658;28;20973;-46
2023/09/06 04:45:30;;;;;;;230.53;90.03;;;;;;;;;;5003001;28;20775;-47
2023/09/06 04:47:56;;;;;;;231.57;89.83;;;;;;;;;;5006777;28;20505;-46
2023/09/06 04:50:24;;;;;;;230.77;91.37;;;;;;;;;;5008481;28;20414;-46
2023/09/06 04:52:53;;;;;;;230.00;91.00;;;;;;;;;;5004626;28;20432;-47
2023/09/06 04:55:19;;;;;;;229.70;89.50;;;;;;;;;;5000478;28;20862;-46
2023/09/06 04:57:46;;;;;;;227.10;85.73;;;;;;;;;;5001598;28;20563;-46
2023/09/06 05:00:18;;;;;;;230.87;91.57;;;;;;;;;;5001943;28;20410;-47
2023/09/06 05:02:44;;;;;;;232.10;92.80;;;;;;;;;;5002233;28;20471;-46
2023/09/06 05:05:11;;;;;;;232.60;92.30;;;;;;;;;;5000459;28;20907;-46
2023/09/06 05:07:37;;;;;;;230.40;87.60;;;;;;;;;;5002328;28;20476;-46
2023/09/06 05:10:03;;;;;;;229.93;85.77;;;;;;;;;;5004878;28;20680;-46
2023/09/06 05:12:29;;;;;;;230.03;88.10;;;;;;;;;;4998207;28;20810;-47
2023/09/06 05:14:55;;;;;;;232.57;91.33;;;;;;;;;;4998365;28;20430;-47
2023/09/06 05:17:23;;;;;;;229.83;87.93;;;;;;;;;;5000151;28;20441;-47
2023/09/06 05:19:51;;;;;;;232.73;89.67;;;;;;;;;;5002071;28;20408;-47
2023/09/06 05:22:17;;;;;;;234.63;93.90;;;;;;;;;;4993847;28;20435;-47
2023/09/06 05:24:43;;;;;;;206.73;87.53;;;;;;;;;;4993923;28;20411;-46
2023/09/06 05:27:09;;;;;;;216.83;92.87;;;;;;;;;;4990221;28;20423;-47
2023/09/06 05:29:35;;;;;;;215.33;88.60;;;;;;;;;;5009195;28;20504;-47
2023/09/06 05:32:01;;;;;;;215.03;95.63;;;;;;;;;;5006888;28;20515;-46
2023/09/06 05:34:29;;;;;;;217.33;89.80;;;;;;;;;;5001439;28;20442;-47
2023/09/06 05:36:55;;;;;;;212.73;87.47;;;;;;;;;;5001266;28;20418;-46
2023/09/06 05:39:21;;;;;;;235.87;92.53;;;;;;;;;;5003036;28;20897;-46
2023/09/06 05:41:50;;;;;;;244.33;101.93;;;;;;;;;;5001267;28;20412;-47
2023/09/06 05:44:16;;;;;;;237.97;96.03;;;;;;;;;;5001370;28;20519;-46
2023/09/06 05:46:43;;;;;;;235.83;93.73;;;;;;;;;;4996367;28;20479;-46
2023/09/06 05:49:09;;;;;;;237.03;94.90;;;;;;;;;;5004562;28;20504;-47
2023/09/06 05:51:35;;;;;;;231.83;102.60;;;;;;;;;;5000130;28;20839;-47
2023/09/06 05:54:02;;;;;;;217.43;95.50;;;;;;;;;;4998616;28;20411;-46
2023/09/06 05:56:28;;;;;;;209.67;95.50;;;;;;;;;;5001107;28;20957;-47
2023/09/06 05:58:54;;;;;;;210.37;97.47;;;;;;;;;;5001084;28;20406;-46
2023/09/06 06:01:21;;;;;;;214.37;99.33;;;;;;;;;;4999867;28;20497;-47
2023/09/06 06:03:47;;;;;;;210.30;92.80;;;;;;;;;;4995052;28;20460;-47
2023/09/06 06:06:16;;;;;;;211.17;94.30;;;;;;;;;;4991310;28;20405;-47
2023/09/06 06:08:42;;;;;;;208.63;92.73;;;;;;;;;;5002206;28;20417;-47
2023/09/06 06:11:08;;;;;;;215.20;97.27;;;;;;;;;;4996234;28;20406;-46
2023/09/06 06:13:34;;;;;;;219.77;99.87;;;;;;;;;;4998783;28;20800;-47
2023/09/06 06:16:00;;;;;;;219.43;99.17;;;;;;;;;;5001002;28;20445;-47
2023/09/06 06:18:26;;;;;;;217.97;96.23;;;;;;;;;;5004003;28;20435;-47
2023/09/06 06:20:53;;;;;;;222.17;93.17;;;;;;;;;;5000954;28;20495;-47
2023/09/06 06:23:19;;;;;;;225.13;93.00;;;;;;;;;;4994032;28;20458;-47
2023/09/06 06:25:45;;;;;;;224.37;92.53;;;;;;;;;;4998075;28;20473;-48
2023/09/06 06:28:10;;;;;;;220.60;87.87;;;;;;;;;;4994443;28;20414;-47
2023/09/06 06:30:36;;;;;;;226.00;94.60;;;;;;;;;;4993051;28;20439;-48
2023/09/06 06:33:02;;;;;;;223.13;89.70;;;;;;;;;;4992634;28;20431;-47
2023/09/06 06:35:28;;;;;;;224.30;91.67;;;;;;;;;;4992841;28;20408;-47
2023/09/06 06:37:55;;;;;;;225.33;90.90;;;;;;;;;;4992704;28;20458;-48
2023/09/06 06:40:22;;;;;;;228.37;95.00;;;;;;;;;;4992845;28;20443;-48
2023/09/06 06:42:48;;;;;;;225.97;88.67;;;;;;;;;;4992383;28;20602;-47
2023/09/06 06:45:14;;;;;;;226.17;92.17;;;;;;;;;;4992275;28;20446;-47
2023/09/06 06:47:40;;;;;;;227.77;90.93;;;;;;;;;;4992724;28;20404;-47
2023/09/06 06:50:06;;;;;;;228.50;88.63;;;;;;;;;;4992688;28;20949;-48
2023/09/06 06:52:36;;;;;;;232.50;93.80;;;;;;;;;;4992073;28;20513;-47
2023/09/06 06:55:06;;;;;;;233.13;91.57;;;;;;;;;;4992592;28;20440;-47
2023/09/06 06:57:33;;;;;;;237.00;94.93;;;;;;;;;;4992571;28;20940;-48
2023/09/06 06:59:59;;;;;;;233.70;92.90;;;;;;;;;;4992898;28;20833;-48
2023/09/06 07:02:25;;;;;;;238.07;102.63;;;;;;;;;;4984857;28;20551;-47
2023/09/06 07:04:51;;;;;;;238.57;98.47;;;;;;;;;;4992422;28;20768;-47
2023/09/06 07:07:17;;;;;;;239.97;99.17;;;;;;;;;;4992579;28;20489;-47
2023/09/06 07:09:44;;;;;;;240.23;102.30;;;;;;;;;;4992687;28;20755;-48
2023/09/06 07:12:10;;;;;;;240.00;104.00;;;;;;;;;;4992128;28;20965;-46
2023/09/06 07:14:36;;;;;;;237.60;101.17;;;;;;;;;;4992494;28;20447;-47
2023/09/06 07:17:02;;;;;;;238.97;102.07;;;;;;;;;;4992437;28;20414;-47
2023/09/06 07:19:28;;;;;;;238.87;103.70;;;;;;;;;;4992418;28;20490;-48
2023/09/06 07:21:54;;;;;;;239.60;107.93;;;;;;;;;;4992074;28;20467;-47
2023/09/06 07:24:20;;;;;;;235.87;105.67;;;;;;;;;;4992264;28;20836;-47
2023/09/06 07:26:46;;;;;;;237.63;103.77;;;;;;;;;;4992408;28;20742;-47
2023/09/06 07:29:12;;;;;;;241.20;113.07;;;;;;;;;;4992333;28;20408;-48
2023/09/06 07:31:39;;;;;;;248.83;120.63;;;;;;;;;;4991852;28;20404;-47
2023/09/06 07:34:04;;;;;;;239.47;112.17;;;;;;;;;;4991982;28;20412;-47
2023/09/06 07:36:31;;;;;;;243.13;114.70;;;;;;;;;;4992160;28;20366;-47
2023/09/06 07:38:57;;;;;;;242.73;117.50;;;;;;;;;;4992439;28;20791;-48
2023/09/06 07:41:25;;;;;;;239.97;116.53;;;;;;;;;;4992373;28;20404;-46
2023/09/06 07:43:52;;;;;;;249.57;121.23;;;;;;;;;;4989047;28;20498;-46
2023/09/06 07:46:18;;;;;;;243.17;120.47;;;;;;;;;;4998303;28;20420;-46
2023/09/06 07:48:44;;;;;;;246.33;125.40;;;;;;;;;;5001674;28;20389;-48
2023/09/06 07:51:12;;;;;;;244.20;122.00;;;;;;;;;;4998851;28;20475;-47
2023/09/06 07:53:38;;;;;;;243.97;123.53;;;;;;;;;;4996049;28;20791;-48
2023/09/06 07:56:06;;;;;;;241.03;125.70;;;;;;;;;;5008336;28;20872;-47
2023/09/06 07:58:32;;;;;;;243.10;127.17;;;;;;;;;;4996354;28;20442;-48
2023/09/06 08:00:58;;;;;;;241.97;127.63;;;;;;;;;;5003119;28;20398;-47
2023/09/06 08:03:26;;;;;;;243.27;131.23;;;;;;;;;;5008736;28;20429;-47
2023/09/06 08:05:52;;;;;;;243.67;132.10;;;;;;;;;;4996680;28;20640;-47
2023/09/06 08:08:18;;;;;;;242.43;130.33;;;;;;;;;;4990811;28;20410;-48
2023/09/06 08:10:45;;;;;;;244.03;131.03;;;;;;;;;;5008192;28;21006;-48
2023/09/06 08:13:11;;;;;;;241.23;129.23;;;;;;;;;;5008038;28;20438;-47
2023/09/06 08:15:37;;;;;;;241.30;129.67;;;;;;;;;;5002736;28;20412;-47
2023/09/06 08:18:05;;;;;;;238.87;126.27;;;;;;;;;;5000594;28;20907;-47
2023/09/06 08:20:32;;;;;;;238.77;125.90;;;;;;;;;;4995335;28;20478;-47
2023/09/06 08:22:58;;;;;;;239.50;128.73;;;;;;;;;;5002844;28;20434;-47
2023/09/06 08:25:24;;;;;;;239.07;130.53;;;;;;;;;;5005446;28;20899;-47
2023/09/06 08:27:53;;;;;;;241.53;134.67;;;;;;;;;;5005512;28;20382;-47
2023/09/06 08:30:21;;;;;;;244.07;137.83;;;;;;;;;;5006320;28;20411;-46
2023/09/06 08:32:51;;;;;;;240.70;132.67;;;;;;;;;;5002190;28;20905;-47
2023/09/06 08:35:20;;;;;;;240.87;134.00;;;;;;;;;;5006175;28;20411;-48
2023/09/06 08:37:46;;;;;;;240.57;127.37;;;;;;;;;;5013732;28;20409;-48
2023/09/06 08:40:12;;;;;;;241.30;136.20;;;;;;;;;;5014231;28;20776;-47
2023/09/06 08:42:38;;;;;;;239.83;133.37;;;;;;;;;;5014078;28;20433;-47
2023/09/06 08:45:09;;;;;;;240.17;136.20;;;;;;;;;;5014196;28;20486;-47
2023/09/06 08:47:41;;;;;;;236.93;131.20;;;;;;;;;;5014505;28;20395;-48
2023/09/06 08:50:09;;;;;;;238.90;134.63;;;;;;;;;;5014299;28;20395;-47
2023/09/06 08:52:36;;;;;;;238.70;136.43;;;;;;;;;;5014273;28;20469;-47
2023/09/06 08:55:03;;;;;;;239.30;137.50;;;;;;;;;;5014166;28;20411;-47
2023/09/06 08:57:29;;;;;;;239.83;139.80;;;;;;;;;;5014037;28;20466;-47
2023/09/06 08:59:55;;;;;;;239.03;137.33;;;;;;;;;;5014154;28;20768;-47
2023/09/06 09:02:21;;;;;;;239.47;137.10;;;;;;;;;;5013660;28;20423;-47
2023/09/06 09:04:47;;;;;;;238.30;136.00;;;;;;;;;;5013998;28;20422;-47
2023/09/06 09:07:13;;;;;;;236.70;138.40;;;;;;;;;;5008704;28;20953;-48
2023/09/06 09:09:55;;;;;;;238.13;137.93;;;;;;;;;;4994255;28;20754;-47
2023/09/06 09:12:25;;;;;;;237.10;135.30;;;;;;;;;;4993929;28;21013;-47
2023/09/06 09:14:51;;;;;;;241.17;139.10;;;;;;;;;;4994036;28;20428;-47
2023/09/06 09:17:19;;;;;;;236.77;137.57;;;;;;;;;;4994193;28;20647;-48
2023/09/06 09:19:48;;;;;;;239.17;138.77;;;;;;;;;;4994260;28;20440;-48
2023/09/06 09:22:15;;;;;;;239.73;141.70;;;;;;;;;;4993782;28;20503;-47
2023/09/06 09:24:41;;;;;;;240.23;139.70;;;;;;;;;;4994004;28;20542;-47
2023/09/06 09:27:08;;;;;;;240.70;143.37;;;;;;;;;;4994064;28;20845;-48
2023/09/06 09:29:36;;;;;;;239.93;141.03;;;;;;;;;;4993984;28;20415;-47
2023/09/06 09:32:03;;;;;;;240.30;142.00;;;;;;;;;;4993756;28;20486;-48
2023/09/06 09:34:29;;;;;;;242.40;147.53;;;;;;;;;;4993866;28;20404;-48
2023/09/06 09:36:55;;;;;;;240.90;140.63;;;;;;;;;;4993849;28;20500;-47
2023/09/06 09:39:27;;;;;;;239.33;141.33;;;;;;;;;;4993713;28;20383;-47
2023/09/06 09:41:53;;;;;;;238.53;141.00;;;;;;;;;;4993519;28;20405;-47
2023/09/06 09:44:19;;;;;;;239.63;146.00;;;;;;;;;;4993601;28;20501;-47
2023/09/06 09:46:46;;;;;;;242.27;146.93;;;;;;;;;;4993799;28;20410;-47
2023/09/06 09:49:13;;;;;;;240.57;146.70;;;;;;;;;;4993653;28;20462;-47
2023/09/06 09:51:41;;;;;;;244.73;150.77;;;;;;;;;;4993124;28;20401;-48
2023/09/06 09:54:08;;;;;;;242.80;148.53;;;;;;;;;;4993685;28;20434;-48
2023/09/06 09:56:34;;;;;;;241.33;149.00;;;;;;;;;;4993547;28;20773;-47
2023/09/06 09:59:04;;;;;;;242.83;149.37;;;;;;;;;;4993368;28;20443;-46
2023/09/06 10:01:31;;;;;;;243.17;152.53;;;;;;;;;;4993287;28;20408;-46
2023/09/06 10:03:58;;;;;;;240.83;150.03;;;;;;;;;;4993585;28;20943;-47
2023/09/06 10:06:25;;;;;;;238.83;147.97;;;;;;;;;;4993251;28;20404;-47
2023/09/06 10:08:51;;;;;;;241.80;153.10;;;;;;;;;;4975393;28;20780;-46
2023/09/06 10:11:19;;;;;;;243.67;153.90;;;;;;;;;;4973732;28;20499;-46
2023/09/06 10:13:45;;;;;;;240.27;150.90;;;;;;;;;;4973410;28;20429;-46
2023/09/06 10:16:12;;;;;;;241.73;153.53;;;;;;;;;;4973601;28;20432;-47
2023/09/06 10:18:37;;;;;;;241.03;152.47;;;;;;;;;;4973156;28;20417;-47
2023/09/06 10:21:04;;;;;;;239.03;149.53;;;;;;;;;;4982121;28;20435;-48
2023/09/06 10:23:31;;;;;;;260.93;177.47;;;;;;;;;;4998026;28;20475;-47
2023/09/06 10:25:59;;;;;;;239.77;150.50;;;;;;;;;;4994740;28;20435;-47
2023/09/06 10:28:25;;;;;;;244.77;157.97;;;;;;;;;;4997573;28;20850;-46
2023/09/06 10:31:02;;;;;;;242.33;155.57;;;;;;;;;;4998321;28;20894;-47
2023/09/06 10:33:35;;;;;;;241.33;152.83;;;;;;;;;;4994052;28;20469;-47
2023/09/06 10:36:14;;;;;;;239.40;152.93;;;;;;;;;;5000085;28;20441;-47
2023/09/06 10:38:52;;;;;;;244.00;158.03;;;;;;;;;;4999237;28;20929;-47
2023/09/06 10:41:18;;;;;;;242.77;155.43;;;;;;;;;;4997969;28;20438;-48
2023/09/06 10:43:55;;;;;;;241.03;154.00;;;;;;;;;;4971661;28;20435;-48
2023/09/06 10:46:24;;;;;;;239.60;152.60;;;;;;;;;;4981294;28;20900;-47
2023/09/06 10:49:09;;;;;;;238.23;153.63;;;;;;;;;;4992606;28;20416;-47
2023/09/06 10:51:54;;;;;;;246.03;158.20;;;;;;;;;;4992208;28;20422;-48
2023/09/06 10:54:22;;;;;;;239.10;152.47;;;;;;;;;;4992420;28;20483;-48
2023/09/06 10:56:58;;;;;;;239.17;150.20;;;;;;;;;;4992055;28;20412;-47
2023/09/06 10:59:24;;;;;;;250.07;164.17;;;;;;;;;;4989389;28;20566;-47
2023/09/06 11:02:09;;;;;;;242.17;156.30;;;;;;;;;;4989742;28;20466;-45
2023/09/06 11:04:36;;;;;;;235.30;148.60;;;;;;;;;;4988821;28;20470;-45
2023/09/06 11:07:09;;;;;;;241.03;157.17;;;;;;;;;;4989489;28;20435;-45
2023/09/06 11:09:36;;;;;;;237.93;154.47;;;;;;;;;;4992315;28;20502;-45
2023/09/06 11:12:03;;;;;;;242.20;158.47;;;;;;;;;;4992071;28;20507;-45
2023/09/06 11:14:29;;;;;;;245.27;164.17;;;;;;;;;;4990797;28;20854;-46
2023/09/06 11:16:55;;;;;;;247.73;164.37;;;;;;;;;;4992188;28;20428;-45
2023/09/06 11:19:30;;;;;;;260.30;174.23;;;;;;;;;;4995560;28;20809;-45
2023/09/06 11:22:10;;;;;;;238.83;153.40;;;;;;;;;;4972642;28;20204;-44
2023/09/06 11:24:37;;;;;;;241.77;159.67;;;;;;;;;;4972802;28;20474;-45
2023/09/06 11:27:37;;;;;;;240.70;159.40;;;;;;;;;;4972875;28;20444;-44
2023/09/06 11:30:10;;;;;;;235.57;153.50;;;;;;;;;;4991728;28;20400;-44
2023/09/06 11:32:39;;;;;;;237.07;154.30;;;;;;;;;;4995861;28;20546;-44
2023/09/06 11:35:08;;;;;;;240.97;161.87;;;;;;;;;;4995923;28;20764;-44
2023/09/06 11:37:37;;;;;;;239.73;157.87;;;;;;;;;;4996113;28;20766;-45
2023/09/06 11:40:12;;;;;;;236.73;151.80;;;;;;;;;;4995762;28;20863;-46
2023/09/06 11:42:38;;;;;;;241.17;159.80;;;;;;;;;;4995618;28;20449;-45
2023/09/06 11:45:06;;;;;;;243.07;161.17;;;;;;;;;;4995647;28;20747;-44
2023/09/06 11:47:32;;;;;;;235.80;150.10;;;;;;;;;;4995918;28;20847;-46
2023/09/06 11:50:02;;;;;;;245.43;173.03;;;;;;;;;;4995590;28;20404;-45
2023/09/06 11:52:31;;;;;;;241.27;160.27;;;;;;;;;;4995307;28;20420;-45
2023/09/06 11:54:58;;;;;;;238.93;158.80;;;;;;;;;;4995400;28;20458;-44
2023/09/06 11:57:27;;;;;;;240.30;163.17;;;;;;;;;;4995451;28;20490;-44
2023/09/06 11:59:57;;;;;;;239.20;160.33;;;;;;;;;;4995899;28;20419;-45
2023/09/06 12:02:26;;;;;;;237.03;159.27;;;;;;;;;;4995256;28;20484;-44
2023/09/06 12:04:52;;;;;;;244.10;164.40;;;;;;;;;;4995182;28;20974;-44
2023/09/06 12:07:23;;;;;;;235.07;153.57;;;;;;;;;;4995284;28;20793;-44
2023/09/06 12:09:49;;;;;;;238.43;157.10;;;;;;;;;;4995632;28;20408;-44
2023/09/06 12:12:17;;;;;;;238.17;160.63;;;;;;;;;;4994667;28;20451;-45
2023/09/06 12:14:43;;;;;;;241.63;164.07;;;;;;;;;;4995122;28;20989;-45
2023/09/06 12:17:11;;;;;;;240.33;159.63;;;;;;;;;;4995267;28;20708;-45
2023/09/06 12:19:37;;;;;;;241.57;163.20;;;;;;;;;;4995041;28;20421;-44
2023/09/06 12:22:05;;;;;;;245.40;168.27;;;;;;;;;;4993702;28;20423;-46
2023/09/06 12:24:33;;;;;;;243.17;166.70;;;;;;;;;;4993291;28;20447;-45
2023/09/06 12:26:58;;;;;;;241.27;168.23;;;;;;;;;;4994181;28;20392;-45
2023/09/06 12:29:24;;;;;;;243.70;170.17;;;;;;;;;;4994836;28;20914;-44
2023/09/06 12:31:53;;;;;;;240.87;166.03;;;;;;;;;;4994761;28;20703;-46
2023/09/06 12:34:19;;;;;;;244.13;170.00;;;;;;;;;;4994851;28;20173;-45
2023/09/06 12:36:45;;;;;;;238.07;165.70;;;;;;;;;;4995132;28;20403;-44
2023/09/06 12:39:11;;;;;;;239.57;163.63;;;;;;;;;;4994999;28;20892;-44
2023/09/06 12:41:37;;;;;;;250.73;179.70;;;;;;;;;;4994167;28;20165;-45
2023/09/06 12:44:03;;;;;;;239.97;165.27;;;;;;;;;;4994352;28;20456;-45
2023/09/06 12:46:29;;;;;;;240.20;164.63;;;;;;;;;;4994846;28;20633;-45
2023/09/06 12:48:55;;;;;;;240.70;166.13;;;;;;;;;;4994813;28;20408;-44
2023/09/06 12:51:21;;;;;;;243.47;168.47;;;;;;;;;;4994673;28;20896;-45
2023/09/06 12:53:47;;;;;;;238.60;163.53;;;;;;;;;;4994551;28;20696;-45
2023/09/06 12:56:13;;;;;;;239.67;165.40;;;;;;;;;;4994620;28;20424;-45
2023/09/06 12:58:39;;;;;;;239.10;162.70;;;;;;;;;;4994731;28;20416;-44
2023/09/06 13:01:10;;;;;;;240.57;164.93;;;;;;;;;;4994672;28;20744;-44
2023/09/06 13:03:36;;;;;;;238.70;164.33;;;;;;;;;;4994306;28;20569;-45
2023/09/06 13:06:02;;;;;;;237.33;163.90;;;;;;;;;;4994523;28;20903;-45
2023/09/06 13:08:28;;;;;;;236.30;159.43;;;;;;;;;;4979641;28;20409;-45
2023/09/06 13:10:54;;;;;;;238.17;164.40;;;;;;;;;;4974953;28;20405;-45
2023/09/06 13:13:20;;;;;;;240.63;168.30;;;;;;;;;;4974505;28;20432;-46
2023/09/06 13:15:46;;;;;;;240.17;169.13;;;;;;;;;;4974740;28;20440;-44
2023/09/06 13:18:12;;;;;;;239.53;169.67;;;;;;;;;;4975062;28;20174;-44
2023/09/06 13:20:38;;;;;;;240.37;167.53;;;;;;;;;;4974881;28;20479;-44
2023/09/06 13:23:04;;;;;;;238.63;162.63;;;;;;;;;;4974440;28;20209;-44
2023/09/06 13:25:32;;;;;;;262.20;193.40;;;;;;;;;;4974743;28;20170;-45
2023/09/06 13:27:58;;;;;;;239.53;166.30;;;;;;;;;;4993967;28;20764;-44
2023/09/06 13:30:23;;;;;;;238.80;164.70;;;;;;;;;;4993871;28;20407;-44
2023/09/06 13:32:49;;;;;;;239.00;163.23;;;;;;;;;;4993628;28;20916;-45
2023/09/06 13:35:15;;;;;;;247.97;185.80;;;;;;;;;;4994097;28;20668;-45
2023/09/06 13:37:41;;;;;;;240.00;174.97;;;;;;;;;;4993927;28;20632;-45
2023/09/06 13:40:08;;;;;;;237.80;166.10;;;;;;;;;;4993853;28;20400;-44
2023/09/06 13:42:34;;;;;;;241.67;173.23;;;;;;;;;;4993450;28;20279;-44
2023/09/06 13:45:00;;;;;;;242.23;177.80;;;;;;;;;;4993560;28;20401;-44
2023/09/06 13:47:26;;;;;;;239.73;165.10;;;;;;;;;;4993601;28;20403;-46
2023/09/06 13:49:52;;;;;;;239.90;167.50;;;;;;;;;;4993885;28;20174;-45
2023/09/06 13:52:17;;;;;;;238.67;163.63;;;;;;;;;;4993343;28;20283;-44
2023/09/06 13:54:44;;;;;;;241.13;169.77;;;;;;;;;;4993321;28;20400;-45
2023/09/06 13:57:10;;;;;;;242.57;170.83;;;;;;;;;;4993527;28;20866;-44
2023/09/06 13:59:35;;;;;;;239.90;164.33;;;;;;;;;;4993726;28;20408;-44
2023/09/06 14:02:03;;;;;;;238.83;165.93;;;;;;;;;;4993276;28;20922;-45
2023/09/06 14:04:29;;;;;;;238.47;161.17;;;;;;;;;;4993233;28;20459;-45